createdAt,value
2019-04-14T00:02:15.292Z,100453.95
2019-04-14T00:07:23.452Z,100327.92
2019-04-14T00:12:29.524Z,100112.61
2019-04-14T00:17:35.219Z,100125.22
2019-04-14T00:22:40.897Z,99997.46
2019-04-14T00:27:47.552Z,99931.19
2019-04-14T00:33:01.925Z,99759.80
2019-04-14T00:38:17.463Z,99486.70
2019-04-14T00:43:37.493Z,99364.58
2019-04-14T00:48:45.223Z,99188.64
2019-04-14T00:53:51.367Z,99235.84
2019-04-14T00:58:58.260Z,99166.23
2019-04-14T01:04:04.485Z,99075.86
2019-04-14T01:09:13.160Z,98982.02
2019-04-14T01:14:19.097Z,98932.63
2019-04-14T01:19:24.982Z,98743.87
2019-04-14T01:24:31.629Z,98624.77
2019-04-14T01:29:38.480Z,98361.06
2019-04-14T01:34:45.531Z,98030.25
2019-04-14T01:39:52.406Z,98237.75
2019-04-14T01:44:59.267Z,97459.26
2019-04-14T01:50:05.938Z,97080.42
2019-04-14T01:55:13.569Z,96469.63
2019-04-14T02:00:24.879Z,96592.08
2019-04-14T02:05:32.041Z,96393.55
2019-04-14T02:10:39.276Z,96536.96
2019-04-14T02:15:46.459Z,96506.02
2019-04-14T02:20:53.502Z,96154.31
2019-04-14T02:26:00.105Z,96162.48
2019-04-14T02:31:18.195Z,96174.61
2019-04-14T02:36:38.178Z,96537.52
2019-04-14T02:46:57.813Z,96629.60
2019-04-14T02:52:04.890Z,96611.09
2019-04-14T02:57:23.123Z,96677.81
2019-04-14T03:12:36.001Z,96600.23
2019-04-14T03:18:16.523Z,96772.20
2019-04-14T03:23:24.975Z,96715.05
2019-04-14T03:28:30.498Z,96725.30
2019-04-14T03:38:44.854Z,96677.06
2019-04-14T03:43:43.103Z,96694.89
2019-04-14T03:48:58.071Z,96703.09
2019-04-14T03:53:57.557Z,96711.62
2019-04-14T03:58:44.509Z,96701.98
2019-04-14T04:03:50.492Z,96662.14
2019-04-14T04:08:57.502Z,96665.51
2019-04-14T04:14:03.320Z,96691.61
2019-04-14T04:19:18.252Z,96625.28
2019-04-14T04:24:32.203Z,96635.98
2019-04-14T04:29:57.293Z,96648.46
2019-04-14T04:35:04.672Z,96563.84
2019-04-14T04:40:18.121Z,96549.84
2019-04-14T04:45:24.067Z,96596.52
2019-04-14T04:50:30.334Z,96790.22
2019-04-14T04:55:37.285Z,96872.48
2019-04-14T05:00:43.900Z,96869.41
2019-04-14T05:06:26.623Z,96838.77
2019-04-14T05:11:42.569Z,96805.89
2019-04-14T05:16:48.672Z,96865.32
2019-04-14T05:21:54.529Z,96874.39
2019-04-14T05:27:01.377Z,97000.13
2019-04-14T05:32:07.337Z,96908.22
2019-04-14T05:37:14.265Z,96885.15
2019-04-14T05:42:24.055Z,96867.12
2019-04-14T05:47:28.341Z,96912.84
2019-04-14T05:52:34.139Z,96954.66
2019-04-14T05:57:40.117Z,97006.81
2019-04-14T06:02:46.363Z,97052.11
2019-04-14T06:07:52.435Z,97103.06
2019-04-14T06:12:58.232Z,97124.31
2019-04-14T06:18:04.368Z,97120.00
2019-04-14T06:23:10.192Z,97095.66
2019-04-14T06:28:16.099Z,97292.78
2019-04-14T06:33:26.468Z,97330.75
2019-04-14T06:38:33.977Z,97385.98
2019-04-14T06:43:48.803Z,97468.49
2019-04-14T06:48:47.369Z,97501.63
2019-04-14T06:53:53.357Z,97550.91
2019-04-14T06:58:59.274Z,97654.66
2019-04-14T07:04:05.144Z,97756.14
2019-04-14T07:09:10.828Z,97774.38
2019-04-14T07:14:16.779Z,97839.61
2019-04-14T07:19:22.616Z,97870.09
2019-04-14T07:24:28.291Z,97862.88
2019-04-14T07:29:42.038Z,97965.02
2019-04-14T07:34:50.312Z,97996.22
2019-04-14T07:39:57.714Z,97997.36
2019-04-14T07:45:05.111Z,98043.55
2019-04-14T07:50:21.734Z,98054.09
2019-04-14T07:55:29.267Z,98159.31
2019-04-14T08:00:36.685Z,98437.42
2019-04-14T08:05:44.498Z,98540.62
2019-04-14T08:10:50.270Z,98557.31
2019-04-14T08:15:56.905Z,98566.27
2019-04-14T08:21:02.805Z,98667.27
2019-04-14T08:26:08.671Z,98704.05
2019-04-14T08:31:14.651Z,98752.28
2019-04-14T08:36:20.550Z,98858.52
2019-04-14T08:41:27.972Z,98970.39
2019-04-14T08:46:42.262Z,99212.66
2019-04-14T08:51:49.721Z,99199.22
2019-04-14T08:56:57.183Z,99199.22
2019-04-14T09:02:07.596Z,99243.80
2019-04-14T09:07:24.112Z,99259.66
2019-04-14T09:12:31.732Z,99299.61
2019-04-14T09:17:37.494Z,99368.77
2019-04-14T09:22:43.276Z,99497.84
2019-04-14T09:27:49.176Z,99534.31
2019-04-14T09:32:55.013Z,99702.46
2019-04-14T09:38:00.983Z,99838.13
2019-04-14T09:43:06.878Z,99768.61
2019-04-14T09:48:12.628Z,99659.95
2019-04-14T09:53:19.525Z,99801.49
2019-04-14T09:58:25.346Z,100251.87
2019-04-14T10:03:31.265Z,100648.02
2019-04-14T10:08:37.037Z,101047.84
2019-04-14T10:13:42.869Z,101160.71
2019-04-14T10:18:48.522Z,101270.50
2019-04-14T10:23:54.275Z,101263.17
2019-04-14T10:28:59.859Z,101272.72
2019-04-14T10:34:05.982Z,101354.71
2019-04-14T10:39:11.810Z,101386.03
2019-04-14T10:44:17.447Z,101323.05
2019-04-14T10:49:22.882Z,101337.85
2019-04-14T10:54:28.525Z,101392.11
2019-04-14T10:59:34.301Z,101511.53
2019-04-14T11:04:40.294Z,101520.32
2019-04-14T11:09:45.859Z,101572.17
2019-04-14T11:14:51.643Z,101595.47
2019-04-14T11:19:57.386Z,101606.08
2019-04-14T11:25:03.749Z,101529.33
2019-04-14T11:30:11.197Z,101577.66
2019-04-14T11:35:18.605Z,101622.95
2019-04-14T11:40:25.702Z,101634.86
2019-04-14T11:45:31.312Z,101628.46
2019-04-14T11:50:37.798Z,101664.63
2019-04-14T11:55:43.490Z,101667.52
2019-04-14T12:01:06.747Z,101643.38
2019-04-14T12:06:13.975Z,101669.25
2019-04-14T12:11:21.401Z,101658.23
2019-04-14T12:16:27.137Z,101634.94
2019-04-14T12:21:32.781Z,101702.64
2019-04-14T12:26:38.219Z,101702.70
2019-04-14T12:31:44.683Z,101725.88
2019-04-14T12:36:50.251Z,101740.38
2019-04-14T12:41:57.621Z,101778.77
2019-04-14T12:47:17.254Z,101797.63
2019-04-14T12:52:24.545Z,101787.48
2019-04-14T12:57:31.954Z,101816.31
2019-04-14T13:02:39.250Z,101823.81
2019-04-14T13:07:44.773Z,101859.89
2019-04-14T13:12:50.669Z,101873.06
2019-04-14T13:17:56.723Z,101889.17
2019-04-14T13:23:02.347Z,101836.76
2019-04-14T13:28:08.332Z,101886.80
2019-04-14T13:33:14.456Z,101945.20
2019-04-14T13:38:19.967Z,101984.62
2019-04-14T13:43:25.597Z,102000.51
2019-04-14T13:48:31.695Z,102039.06
2019-04-14T13:53:38.497Z,102070.21
2019-04-14T13:58:44.103Z,102085.38
2019-04-14T14:03:49.846Z,102095.45
2019-04-14T14:08:55.361Z,102101.89
2019-04-14T14:14:11.340Z,102101.30
2019-04-14T14:19:21.315Z,102101.93
2019-04-14T14:24:40.755Z,102101.31
2019-04-14T14:29:46.407Z,102101.73
2019-04-14T14:34:52.259Z,102096.91
2019-04-14T14:39:57.783Z,102106.97
2019-04-14T14:45:05.946Z,102105.48
2019-04-14T14:50:13.247Z,102108.44
2019-04-14T14:55:18.935Z,102101.16
2019-04-14T15:00:29.224Z,102106.86
2019-04-14T15:05:35.044Z,102113.42
2019-04-14T15:10:40.472Z,102009.70
2019-04-14T15:15:46.667Z,101924.19
2019-04-14T15:20:52.327Z,101927.64
2019-04-14T15:25:58.254Z,101916.06
2019-04-14T15:31:04.556Z,101919.83
2019-04-14T15:36:10.739Z,101910.84
2019-04-14T15:41:17.607Z,101876.95
2019-04-14T15:46:23.569Z,101872.86
2019-04-14T15:51:29.455Z,101884.13
2019-04-14T15:56:37.068Z,101897.73
2019-04-14T16:01:44.583Z,101906.55
2019-04-14T16:07:01.101Z,101899.67
2019-04-14T16:12:11.494Z,101911.53
2019-04-14T16:17:21.965Z,101877.91
2019-04-14T16:22:28.950Z,101928.62
2019-04-14T16:27:51.326Z,101966.65
2019-04-14T16:33:14.617Z,101960.80
2019-04-14T16:38:20.185Z,102000.08
2019-04-14T16:43:26.376Z,101997.19
2019-04-14T16:48:32.044Z,101984.80
2019-04-14T16:53:41.051Z,101969.63
2019-04-14T16:58:48.410Z,101975.94
2019-04-14T17:03:54.125Z,101990.26
2019-04-14T17:08:59.949Z,101992.34
2019-04-14T17:14:07.485Z,102015.67
2019-04-14T17:19:18.214Z,102025.86
2019-04-14T17:24:28.163Z,102041.28
2019-04-14T17:29:41.044Z,102055.91
2019-04-14T17:35:06.987Z,102053.95
2019-04-14T17:40:13.986Z,102050.98
2019-04-14T17:45:27.505Z,102059.22
2019-04-14T17:50:41.102Z,102058.44
2019-04-14T17:55:49.963Z,102062.56
2019-04-14T18:00:58.984Z,102057.34
2019-04-14T18:06:15.543Z,102060.55
2019-04-14T18:11:37.878Z,102065.91
2019-04-14T18:16:57.223Z,102070.61
2019-04-14T18:22:03.427Z,102060.50
2019-04-14T18:27:09.969Z,102063.98
2019-04-14T18:32:20.350Z,102058.81
2019-04-14T18:37:44.318Z,102062.35
2019-04-14T18:42:51.558Z,102057.01
2019-04-14T18:48:04.711Z,102053.64
2019-04-14T18:53:27.968Z,102065.64
2019-04-14T18:58:38.151Z,102059.06
2019-04-14T19:03:43.738Z,102069.31
2019-04-14T19:08:52.634Z,102090.13
2019-04-14T19:14:00.028Z,102074.32
2019-04-14T19:19:07.145Z,102091.84
2019-04-14T19:24:12.994Z,102106.94
2019-04-14T19:29:18.664Z,102120.73
2019-04-14T19:34:24.320Z,102141.78
2019-04-14T19:39:29.915Z,102144.39
2019-04-14T19:44:36.915Z,102147.64
2019-04-14T19:49:42.474Z,102158.75
2019-04-14T19:54:48.067Z,102168.67
2019-04-14T19:59:53.774Z,102185.30
2019-04-14T20:04:59.546Z,102185.30
2019-04-14T20:10:08.628Z,102187.44
2019-04-14T20:15:16.517Z,102194.50
2019-04-14T20:20:32.662Z,102217.92
2019-04-14T20:25:56.431Z,102217.92
2019-04-14T20:31:06.701Z,102214.94
2019-04-14T20:36:12.583Z,102223.70
2019-04-14T20:41:18.387Z,102229.22
2019-04-14T20:46:24.132Z,102244.87
2019-04-14T20:51:29.879Z,102252.59
2019-04-14T20:56:35.743Z,102259.80
2019-04-14T21:01:43.258Z,102269.48
2019-04-14T21:06:59.973Z,102285.81
2019-04-14T21:12:07.504Z,102285.81
2019-04-14T21:17:17.864Z,102285.86
2019-04-14T21:22:31.188Z,102278.52
2019-04-14T21:27:48.356Z,102278.77
2019-04-14T21:33:01.807Z,102277.87
2019-04-14T21:38:09.832Z,102284.64
2019-04-14T21:43:16.752Z,102281.24
2019-04-14T21:48:24.729Z,102285.47
2019-04-14T21:53:30.477Z,102286.31
2019-04-14T21:58:37.710Z,102290.86
2019-04-14T22:03:45.119Z,102291.13
2019-04-14T22:08:52.590Z,102309.48
2019-04-14T22:13:58.252Z,102307.34
2019-04-14T22:19:04.477Z,102316.42
2019-04-14T22:24:10.235Z,102323.73
2019-04-14T22:29:16.143Z,102322.48
2019-04-14T22:34:21.987Z,102339.91
2019-04-14T22:39:27.857Z,102337.00
2019-04-14T22:44:33.662Z,102335.59
2019-04-14T22:49:39.393Z,102348.63
2019-04-14T22:54:45.272Z,102342.23
2019-04-14T22:59:51.028Z,102349.57
2019-04-14T23:04:58.525Z,102333.89
2019-04-14T23:10:12.492Z,102336.25
2019-04-14T23:15:26.252Z,102340.39
2019-04-14T23:20:49.055Z,102341.51
2019-04-14T23:25:54.726Z,102339.91
2019-04-14T23:31:01.712Z,102341.19
2019-04-14T23:36:07.760Z,102331.50
2019-04-14T23:41:13.729Z,102344.98
2019-04-14T23:46:19.609Z,102332.40
2019-04-14T23:51:25.457Z,102318.86
2019-04-14T23:56:31.258Z,102296.44
